createdAt,value
2022-10-05T00:01:53.235Z,100315.53
2022-10-05T00:04:22.603Z,100319.88
2022-10-05T00:07:14.244Z,100335.50
2022-10-05T00:09:41.384Z,100346.75
2022-10-05T00:12:18.163Z,100334.63
2022-10-05T00:14:47.095Z,100338.09
2022-10-05T00:17:28.259Z,100339.84
2022-10-05T00:19:55.763Z,100312.09
2022-10-05T00:22:35.081Z,100319.00
2022-10-05T00:25:04.105Z,100318.16
2022-10-05T00:27:39.254Z,100296.47
2022-10-05T00:30:12.399Z,100297.34
2022-10-05T00:32:39.584Z,100297.34
2022-10-05T00:35:07.172Z,100303.41
2022-10-05T00:37:34.082Z,100304.28
2022-10-05T00:40:01.513Z,100298.19
2022-10-05T00:42:48.595Z,100299.94
2022-10-05T00:45:18.378Z,100303.38
2022-10-05T00:48:15.165Z,100303.38
2022-10-05T00:51:00.851Z,100295.56
2022-10-05T00:53:33.455Z,100300.75
2022-10-05T00:56:15.503Z,100295.56
2022-10-05T00:59:20.114Z,100286.88
2022-10-05T01:02:07.199Z,100284.28
2022-10-05T01:05:00.190Z,100280.78
2022-10-05T01:07:51.086Z,100270.38
2022-10-05T01:10:42.664Z,100256.50
2022-10-05T01:13:45.633Z,100259.09
2022-10-05T01:16:50.845Z,100250.41
2022-10-05T01:19:40.171Z,100256.53
2022-10-05T01:22:18.337Z,100244.38
2022-10-05T01:24:54.517Z,100253.06
2022-10-05T01:27:39.318Z,100250.47
2022-10-05T01:30:13.654Z,100263.44
2022-10-05T01:33:02.055Z,100258.25
2022-10-05T01:36:07.768Z,100257.38
2022-10-05T01:38:47.582Z,100267.75
2022-10-05T01:41:52.165Z,100270.38
2022-10-05T01:44:28.213Z,100253.88
2022-10-05T01:47:08.058Z,100252.13
2022-10-05T01:50:01.293Z,100261.69
2022-10-05T01:52:50.045Z,100261.69
2022-10-05T01:55:40.544Z,100266.00
2022-10-05T01:58:32.283Z,100259.94
2022-10-05T02:01:20.017Z,100254.72
2022-10-05T02:04:06.302Z,100246.91
2022-10-05T02:06:39.023Z,100242.59
2022-10-05T02:09:22.754Z,100239.94
2022-10-05T02:11:55.444Z,100239.94
2022-10-05T02:14:26.378Z,100236.47
2022-10-05T02:16:54.973Z,100237.34
2022-10-05T02:19:24.802Z,100233.00
2022-10-05T02:22:00.177Z,100218.25
2022-10-05T02:24:31.654Z,100207.84
2022-10-05T02:26:59.073Z,100206.16
2022-10-05T02:29:28.534Z,100203.53
2022-10-05T02:32:06.775Z,100200.94
2022-10-05T02:34:40.684Z,100197.47
2022-10-05T02:37:35.833Z,100189.69
2022-10-05T02:40:14.397Z,100194.91
2022-10-05T02:42:56.665Z,100175.84
2022-10-05T02:45:44.732Z,100180.22
2022-10-05T02:48:15.534Z,100181.09
2022-10-05T02:50:45.661Z,100178.50
2022-10-05T02:53:34.791Z,100181.13
2022-10-05T02:56:15.494Z,100178.53
2022-10-05T02:59:08.557Z,100172.50
2022-10-05T03:01:49.755Z,100169.00
2022-10-05T03:04:21.723Z,100165.56
2022-10-05T03:07:14.726Z,100162.97
2022-10-05T03:09:49.854Z,100168.19
2022-10-05T03:12:36.042Z,100176.00
2022-10-05T03:15:23.287Z,100171.66
2022-10-05T03:18:16.368Z,100170.78
2022-10-05T03:20:51.792Z,100173.41
2022-10-05T03:23:37.893Z,100175.13
2022-10-05T03:26:26.493Z,100170.81
2022-10-05T03:29:06.474Z,100173.44
2022-10-05T03:31:50.805Z,100164.75
2022-10-05T03:34:24.527Z,100168.22
2022-10-05T03:36:59.482Z,100162.16
2022-10-05T03:39:31.855Z,100163.91
2022-10-05T03:42:36.664Z,100164.78
2022-10-05T03:45:31.038Z,100159.59
2022-10-05T03:48:08.525Z,100157.00
2022-10-05T03:51:02.565Z,100161.34
2022-10-05T03:54:00.606Z,100179.53
2022-10-05T03:56:37.781Z,100174.34
2022-10-05T03:59:32.414Z,100170.91
2022-10-05T04:02:05.771Z,100155.31
2022-10-05T04:04:51.715Z,100155.28
2022-10-05T04:07:46.945Z,100149.22
2022-10-05T04:10:52.551Z,100144.03
2022-10-05T04:13:34.391Z,100144.88
2022-10-05T04:16:19.850Z,100151.00
2022-10-05T04:18:55.052Z,100147.53
2022-10-05T04:21:30.553Z,100147.50
2022-10-05T04:24:00.645Z,100141.44
2022-10-05T04:26:46.249Z,100150.09
2022-10-05T04:29:19.685Z,100144.91
2022-10-05T04:32:08.554Z,100148.38
2022-10-05T04:34:54.471Z,100149.19
2022-10-05T04:37:47.818Z,100145.75
2022-10-05T04:40:28.768Z,100140.56
2022-10-05T04:43:16.049Z,100131.84
2022-10-05T04:45:45.969Z,100118.88
2022-10-05T04:48:35.563Z,100121.44
2022-10-05T04:51:13.927Z,100107.59
2022-10-05T04:54:23.525Z,100095.44
2022-10-05T04:56:57.623Z,100085.00
2022-10-05T04:59:48.882Z,100072.88
2022-10-05T05:02:52.132Z,100080.66
2022-10-05T05:05:53.120Z,100079.75
2022-10-05T05:08:57.435Z,100078.03
2022-10-05T05:11:56.565Z,100086.66
2022-10-05T05:14:45.083Z,100081.41
2022-10-05T05:17:44.121Z,100092.66
2022-10-05T05:20:23.334Z,100102.16
2022-10-05T05:23:27.936Z,100104.75
2022-10-05T05:26:17.244Z,100095.19
2022-10-05T05:28:51.649Z,100100.38
2022-10-05T05:31:45.798Z,100109.91
2022-10-05T05:34:35.511Z,100122.88
2022-10-05T05:37:41.012Z,100112.44
2022-10-05T05:40:27.989Z,100104.63
2022-10-05T05:43:33.114Z,100115.00
2022-10-05T05:46:01.973Z,100103.66
2022-10-05T05:48:42.900Z,100108.81
2022-10-05T05:51:22.197Z,100097.47
2022-10-05T05:54:20.467Z,100100.88
2022-10-05T05:57:00.182Z,100108.66
2022-10-05T05:59:35.870Z,100112.94
2022-10-05T06:02:10.230Z,100109.41
2022-10-05T06:05:03.605Z,100100.69
2022-10-05T06:07:31.941Z,100101.47
2022-10-05T06:10:28.547Z,100099.69
2022-10-05T06:13:15.826Z,100104.00
2022-10-05T06:15:49.272Z,100091.84
2022-10-05T06:18:19.648Z,100094.38
2022-10-05T06:20:53.602Z,100090.03
2022-10-05T06:23:41.218Z,100093.44
2022-10-05T06:26:44.558Z,100096.00
2022-10-05T06:29:17.268Z,100089.88
2022-10-05T06:31:59.072Z,100079.41
2022-10-05T06:34:52.631Z,100080.28
2022-10-05T06:37:48.661Z,100081.97
2022-10-05T06:40:34.061Z,100079.31
2022-10-05T06:43:13.077Z,100091.47
2022-10-05T06:46:11.401Z,100103.56
2022-10-05T06:49:20.032Z,100093.06
2022-10-05T06:52:40.129Z,100085.19
2022-10-05T06:55:15.592Z,100092.09
2022-10-05T06:57:58.443Z,100094.66
2022-10-05T07:00:53.272Z,100105.03
2022-10-05T07:03:29.651Z,100111.03
2022-10-05T07:06:19.422Z,100109.25
2022-10-05T07:09:14.169Z,100107.44
2022-10-05T07:12:12.522Z,100090.78
2022-10-05T07:15:00.278Z,100100.25
2022-10-05T07:17:52.041Z,100101.03
2022-10-05T07:20:59.272Z,100120.06
2022-10-05T07:23:40.550Z,100123.50
2022-10-05T07:26:15.011Z,100113.06
2022-10-05T07:29:18.197Z,100107.06
2022-10-05T07:31:51.514Z,100107.88
2022-10-05T07:34:45.073Z,100102.66
2022-10-05T07:37:44.081Z,100093.06
2022-10-05T07:40:26.516Z,100089.56
2022-10-05T07:43:21.889Z,100089.56
2022-10-05T07:46:21.307Z,100094.63
2022-10-05T07:49:08.144Z,100092.78
2022-10-05T07:51:56.541Z,100087.47
2022-10-05T07:54:31.146Z,100091.66
2022-10-05T07:57:04.448Z,100092.41
2022-10-05T07:59:53.871Z,100087.09
2022-10-05T08:03:01.277Z,100093.91
2022-10-05T08:05:32.926Z,100087.63
2022-10-05T08:08:19.803Z,100087.47
2022-10-05T08:11:02.461Z,100090.88
2022-10-05T08:13:41.542Z,100094.16
2022-10-05T08:16:16.775Z,100097.59
2022-10-05T08:19:03.520Z,100097.47
2022-10-05T08:21:36.632Z,100099.09
2022-10-05T08:24:11.648Z,100103.34
2022-10-05T08:26:48.137Z,100106.75
2022-10-05T08:29:37.599Z,100102.06
2022-10-05T08:32:12.463Z,100107.91
2022-10-05T08:35:01.460Z,100108.56
2022-10-05T08:37:37.821Z,100116.25
2022-10-05T08:40:39.462Z,100107.22
2022-10-05T08:43:43.902Z,100104.34
2022-10-05T08:46:41.900Z,100107.69
2022-10-05T08:49:35.351Z,100107.63
2022-10-05T08:52:21.034Z,100103.16
2022-10-05T08:55:09.996Z,100086.59
2022-10-05T08:58:04.897Z,100097.88
2022-10-05T09:01:00.504Z,100090.06
2022-10-05T09:03:55.371Z,100087.25
2022-10-05T09:07:05.950Z,100081.94
2022-10-05T09:10:14.602Z,100082.81
2022-10-05T09:13:12.152Z,100081.91
2022-10-05T09:16:03.672Z,100079.31
2022-10-05T09:18:55.422Z,100076.47
2022-10-05T09:21:42.060Z,100080.56
2022-10-05T09:24:14.829Z,100082.19
2022-10-05T09:27:02.283Z,100086.41
2022-10-05T09:29:48.143Z,100090.63
2022-10-05T09:32:33.752Z,100092.06
2022-10-05T09:35:19.011Z,100091.84
2022-10-05T09:37:48.694Z,100080.31
2022-10-05T09:40:47.763Z,100083.63
2022-10-05T09:43:51.890Z,100085.09
2022-10-05T09:46:47.769Z,100094.44
2022-10-05T09:49:33.441Z,100094.31
2022-10-05T09:52:06.570Z,100094.88
2022-10-05T09:54:43.727Z,100097.34
2022-10-05T09:57:25.782Z,100105.09
2022-10-05T10:00:11.505Z,100109.13
2022-10-05T10:03:02.552Z,100111.91
2022-10-05T10:06:10.722Z,100109.19
2022-10-05T10:09:09.710Z,100103.75
2022-10-05T10:12:03.589Z,100107.28
2022-10-05T10:14:51.692Z,100091.53
2022-10-05T10:17:44.261Z,100098.31
2022-10-05T10:20:56.596Z,100089.50
2022-10-05T10:23:48.260Z,100091.22
2022-10-05T10:26:33.742Z,100094.56
2022-10-05T10:29:20.309Z,100088.34
2022-10-05T10:32:01.740Z,100087.94
2022-10-05T10:34:59.702Z,100095.38
2022-10-05T10:37:58.684Z,100088.31
2022-10-05T10:40:28.401Z,100080.84
2022-10-05T10:43:04.252Z,100075.19
2022-10-05T10:45:49.062Z,100071.66
2022-10-05T10:48:19.132Z,100067.47
2022-10-05T10:51:07.411Z,100066.59
2022-10-05T10:54:10.890Z,100076.31
2022-10-05T10:57:03.287Z,100070.00
2022-10-05T10:59:42.378Z,100070.66
2022-10-05T11:02:43.097Z,100067.66
2022-10-05T11:05:19.222Z,100058.56
2022-10-05T11:07:56.011Z,100055.81
2022-10-05T11:10:50.851Z,100062.84
2022-10-05T11:13:39.243Z,100073.28
2022-10-05T11:16:45.083Z,100062.81
2022-10-05T11:19:40.725Z,100063.75
2022-10-05T11:22:46.941Z,100064.56
2022-10-05T11:25:44.902Z,100072.44
2022-10-05T11:29:01.310Z,100060.50
2022-10-05T11:32:04.201Z,100063.13
2022-10-05T11:34:44.141Z,100063.25
2022-10-05T11:37:17.133Z,100057.84
2022-10-05T11:39:45.115Z,100061.19
2022-10-05T11:42:27.201Z,100060.19
2022-10-05T11:45:10.962Z,100058.25
2022-10-05T11:47:46.831Z,100058.28
2022-10-05T11:50:24.121Z,100048.63
2022-10-05T11:53:19.115Z,100041.78
2022-10-05T11:56:02.945Z,100048.75
2022-10-05T11:58:35.252Z,100051.53
2022-10-05T12:01:06.792Z,100062.00
2022-10-05T12:03:47.374Z,100060.13
2022-10-05T12:06:47.634Z,100049.53
2022-10-05T12:09:20.521Z,100046.34
2022-10-05T12:12:11.661Z,100049.84
2022-10-05T12:14:57.044Z,100049.97
2022-10-05T12:17:27.325Z,100057.00
2022-10-05T12:19:59.711Z,100054.22
2022-10-05T12:22:51.108Z,100064.53
2022-10-05T12:25:43.302Z,100055.03
2022-10-05T12:28:13.930Z,100055.09
2022-10-05T12:31:14.500Z,100053.41
2022-10-05T12:33:50.392Z,100054.25
2022-10-05T12:36:46.263Z,100048.97
2022-10-05T12:39:19.959Z,100052.28
2022-10-05T12:42:09.784Z,100050.19
2022-10-05T12:44:43.238Z,100049.06
2022-10-05T12:47:15.264Z,100053.41
2022-10-05T12:50:09.817Z,100055.19
2022-10-05T12:52:56.173Z,100057.47
2022-10-05T12:55:38.206Z,100058.41
2022-10-05T12:58:23.862Z,100059.22
2022-10-05T13:01:23.395Z,100053.28
2022-10-05T13:04:04.955Z,100041.88
2022-10-05T13:06:58.243Z,100048.94
2022-10-05T13:09:47.177Z,100043.59
2022-10-05T13:12:23.937Z,100039.97
2022-10-05T13:15:19.507Z,100040.28
2022-10-05T13:17:59.842Z,100049.97
2022-10-05T13:20:47.467Z,100042.25
2022-10-05T13:23:36.273Z,100037.00
2022-10-05T13:26:14.179Z,100029.97
2022-10-05T13:28:47.157Z,100033.75
2022-10-05T13:31:25.249Z,100033.00
2022-10-05T13:34:17.947Z,100022.44
2022-10-05T13:37:06.636Z,100026.88
2022-10-05T13:40:06.827Z,100034.78
2022-10-05T13:42:55.924Z,100022.66
2022-10-05T13:45:30.104Z,100023.75
2022-10-05T13:48:25.005Z,100015.34
2022-10-05T13:51:04.114Z,100005.69
2022-10-05T13:53:40.595Z,100016.22
2022-10-05T13:56:09.242Z,100024.03
2022-10-05T13:58:44.571Z,100022.34
2022-10-05T14:01:25.824Z,100020.63
2022-10-05T14:04:20.803Z,100015.50
2022-10-05T14:06:49.014Z,100009.53
2022-10-05T14:09:30.755Z,100022.03
2022-10-05T14:12:03.694Z,100016.81
2022-10-05T14:15:01.585Z,100030.22
2022-10-05T14:17:41.391Z,100020.75
2022-10-05T14:20:28.390Z,100026.34
2022-10-05T14:22:58.768Z,100028.09
2022-10-05T14:25:26.277Z,100021.31
2022-10-05T14:28:12.150Z,100017.22
2022-10-05T14:30:40.123Z,100020.06
2022-10-05T14:33:17.468Z,100021.28
2022-10-05T14:35:54.258Z,100024.19
2022-10-05T14:38:30.078Z,100029.63
2022-10-05T14:41:19.157Z,100030.75
2022-10-05T14:43:51.531Z,100020.25
2022-10-05T14:46:23.182Z,100020.25
2022-10-05T14:49:26.876Z,100021.34
2022-10-05T14:51:55.876Z,100024.03
2022-10-05T14:54:41.817Z,100018.97
2022-10-05T14:57:34.253Z,100021.72
2022-10-05T15:00:12.136Z,100021.91
2022-10-05T15:03:18.793Z,100019.63
2022-10-05T15:05:49.365Z,100030.19
2022-10-05T15:08:41.767Z,100026.03
2022-10-05T15:11:11.734Z,100025.31
2022-10-05T15:13:43.291Z,100022.03
2022-10-05T15:16:33.948Z,100031.72
2022-10-05T15:19:16.081Z,100016.94
2022-10-05T15:21:46.050Z,100022.25
2022-10-05T15:24:21.994Z,100024.19
2022-10-05T15:26:58.357Z,100015.81
2022-10-05T15:29:55.752Z,100018.53
2022-10-05T15:32:41.802Z,100014.31
2022-10-05T15:35:36.132Z,100007.56
2022-10-05T15:38:21.182Z,100010.25
2022-10-05T15:41:06.938Z,100007.84
2022-10-05T15:43:58.637Z,100010.56
2022-10-05T15:46:50.540Z,100005.47
2022-10-05T15:49:20.641Z,100015.22
2022-10-05T15:52:05.818Z,100008.25
2022-10-05T15:55:11.100Z,100010.19
2022-10-05T15:58:08.405Z,100012.00
2022-10-05T16:00:44.856Z,100007.75
2022-10-05T16:03:18.641Z,100013.09
2022-10-05T16:06:07.556Z,100017.56
2022-10-05T16:08:53.276Z,100016.78
2022-10-05T16:11:37.873Z,100016.88
2022-10-05T16:14:12.765Z,100005.59
2022-10-05T16:16:42.856Z,100013.47
2022-10-05T16:19:28.048Z,100011.00
2022-10-05T16:22:22.256Z,100017.16
2022-10-05T16:25:22.309Z,100009.41
2022-10-05T16:28:29.391Z,100005.13
2022-10-05T16:31:18.830Z,100006.16
2022-10-05T16:34:00.926Z,100011.59
2022-10-05T16:36:53.246Z,100007.41
2022-10-05T16:39:38.005Z,100011.09
2022-10-05T16:42:23.354Z,100000.78
2022-10-05T16:45:11.132Z,100002.72
2022-10-05T16:47:59.991Z,100005.50
2022-10-05T16:50:37.127Z,100001.22
2022-10-05T16:53:19.456Z,100004.91
2022-10-05T16:55:53.037Z,100005.91
2022-10-05T16:58:46.759Z,100003.38
2022-10-05T17:01:42.222Z,99996.56
2022-10-05T17:04:34.023Z,99999.25
2022-10-05T17:07:10.124Z,99996.66
2022-10-05T17:09:55.911Z,100005.53
2022-10-05T17:13:00.390Z,100003.88
2022-10-05T17:15:29.268Z,100005.69
2022-10-05T17:18:23.867Z,100007.59
2022-10-05T17:21:15.032Z,100005.94
2022-10-05T17:24:15.423Z,100006.03
2022-10-05T17:26:54.620Z,100012.13
2022-10-05T17:29:53.686Z,100022.72
2022-10-05T17:32:23.418Z,100021.03
2022-10-05T17:35:18.223Z,100020.28
2022-10-05T17:38:08.856Z,100026.34
2022-10-05T17:40:38.367Z,100022.81
2022-10-05T17:43:24.351Z,100027.28
2022-10-05T17:45:54.891Z,100026.38
2022-10-05T17:48:42.245Z,100028.16
2022-10-05T17:51:39.195Z,100024.72
2022-10-05T17:54:44.308Z,100017.84
2022-10-05T17:57:11.368Z,100017.91
2022-10-05T17:59:57.327Z,100020.59
2022-10-05T18:02:36.813Z,100013.69
2022-10-05T18:05:07.145Z,100014.59
2022-10-05T18:07:35.683Z,100008.53
2022-10-05T18:10:11.821Z,99999.91
2022-10-05T18:12:40.402Z,100006.88
2022-10-05T18:15:07.376Z,100012.97
2022-10-05T18:17:42.348Z,100008.66
2022-10-05T18:20:15.467Z,100011.34
2022-10-05T18:22:46.712Z,100012.22
2022-10-05T18:25:27.465Z,100014.00
2022-10-05T18:28:25.936Z,100013.19
2022-10-05T18:31:15.704Z,100007.16
2022-10-05T18:34:04.279Z,100001.97
2022-10-05T18:36:47.675Z,100003.69
2022-10-05T18:39:30.078Z,100008.91
2022-10-05T18:42:15.879Z,100000.25
2022-10-05T18:44:48.988Z,99997.66
2022-10-05T18:47:36.547Z,100005.53
2022-10-05T18:50:22.594Z,100003.00
2022-10-05T18:53:14.351Z,100002.16
2022-10-05T18:55:45.756Z,100001.31
2022-10-05T18:58:31.472Z,100004.81
2022-10-05T19:01:23.769Z,100007.47
2022-10-05T19:04:22.768Z,100008.34
2022-10-05T19:06:55.320Z,100001.44
2022-10-05T19:09:31.211Z,100000.63
2022-10-05T19:12:22.873Z,99998.00
2022-10-05T19:15:07.308Z,99998.94
2022-10-05T19:17:58.974Z,99992.00
2022-10-05T19:20:37.617Z,99989.44
2022-10-05T19:23:29.777Z,99998.13
2022-10-05T19:26:38.910Z,99993.84
2022-10-05T19:29:39.243Z,99989.59
2022-10-05T19:32:35.982Z,99991.34
2022-10-05T19:35:18.602Z,99986.16
2022-10-05T19:38:02.036Z,99981.81
2022-10-05T19:40:41.384Z,99979.19
2022-10-05T19:43:54.424Z,99980.94
2022-10-05T19:46:28.190Z,99976.56
2022-10-05T19:48:55.719Z,99979.19
2022-10-05T19:51:28.853Z,99979.25
2022-10-05T19:54:21.970Z,99975.81
2022-10-05T19:56:52.941Z,99972.31
2022-10-05T19:59:25.936Z,99979.28
2022-10-05T20:01:56.065Z,99981.03
2022-10-05T20:04:37.611Z,99982.78
2022-10-05T20:07:05.374Z,99974.97
2022-10-05T20:09:54.017Z,99976.75
2022-10-05T20:12:23.237Z,99971.53
2022-10-05T20:15:26.677Z,99973.28
2022-10-05T20:18:12.374Z,99975.91
2022-10-05T20:20:47.155Z,99970.69
2022-10-05T20:23:26.187Z,99973.34
2022-10-05T20:26:11.675Z,99966.34
2022-10-05T20:28:39.073Z,99974.16
2022-10-05T20:31:07.942Z,99967.22
2022-10-05T20:33:35.270Z,99973.28
2022-10-05T20:36:03.894Z,99964.59
2022-10-05T20:38:31.943Z,99960.28
2022-10-05T20:40:59.330Z,99967.25
2022-10-05T20:43:26.449Z,99966.41
2022-10-05T20:45:53.892Z,99958.59
2022-10-05T20:48:20.881Z,99958.56
2022-10-05T20:50:48.161Z,99960.28
2022-10-05T20:53:15.093Z,99955.03
2022-10-05T20:55:43.152Z,99953.31
2022-10-05T20:58:11.234Z,99952.47
2022-10-05T21:00:56.971Z,99952.47
2022-10-05T21:03:24.235Z,99946.38
2022-10-05T21:05:51.243Z,99948.09
2022-10-05T21:08:18.572Z,99942.03
2022-10-05T21:10:45.600Z,99947.25
2022-10-05T21:13:12.538Z,99950.72
2022-10-05T21:15:39.658Z,99948.13
2022-10-05T21:18:06.654Z,99940.28
2022-10-05T21:20:33.930Z,99942.84
2022-10-05T21:23:01.151Z,99939.41
2022-10-05T21:25:28.102Z,99948.13
2022-10-05T21:27:55.140Z,99949.81
2022-10-05T21:30:22.352Z,99946.31
2022-10-05T21:32:49.295Z,99945.44
2022-10-05T21:35:16.453Z,99940.22
2022-10-05T21:37:43.521Z,99935.00
2022-10-05T21:40:10.934Z,99942.81
2022-10-05T21:42:37.997Z,99935.88
2022-10-05T21:45:05.493Z,99936.72
2022-10-05T21:47:33.928Z,99940.13
2022-10-05T21:50:03.685Z,99936.66
2022-10-05T21:52:30.971Z,99941.06
2022-10-05T21:54:57.937Z,99934.13
2022-10-05T21:57:25.004Z,99932.38
2022-10-05T21:59:52.017Z,99932.38
2022-10-05T22:02:19.051Z,99929.81
2022-10-05T22:04:45.995Z,99920.22
2022-10-05T22:07:18.678Z,99923.75
2022-10-05T22:09:50.152Z,99928.13
2022-10-05T22:12:17.773Z,99931.63
2022-10-05T22:14:44.831Z,99927.28
2022-10-05T22:17:31.989Z,99930.72
2022-10-05T22:19:59.822Z,99929.84
2022-10-05T22:22:28.634Z,99928.94
2022-10-05T22:24:56.012Z,99925.44
2022-10-05T22:27:24.070Z,99921.94
2022-10-05T22:29:51.491Z,99924.44
2022-10-05T22:32:18.480Z,99921.84
2022-10-05T22:34:45.556Z,99926.94
2022-10-05T22:37:13.508Z,99924.25
2022-10-05T22:39:40.532Z,99924.22
2022-10-05T22:42:08.327Z,99916.41
2022-10-05T22:44:35.595Z,99916.34
2022-10-05T22:47:03.718Z,99915.41
2022-10-05T22:49:30.631Z,99919.69
2022-10-05T22:51:57.692Z,99926.59
2022-10-05T22:54:29.343Z,99917.88
2022-10-05T22:56:57.111Z,99922.22
2022-10-05T22:59:24.248Z,99915.31
2022-10-05T23:01:51.429Z,99919.63
2022-10-05T23:04:18.613Z,99923.09
2022-10-05T23:06:45.641Z,99930.03
2022-10-05T23:09:12.542Z,99921.31
2022-10-05T23:11:40.731Z,99932.59
2022-10-05T23:14:07.776Z,99929.16
2022-10-05T23:16:34.750Z,99923.09
2022-10-05T23:19:01.911Z,99923.06
2022-10-05T23:21:29.572Z,99923.09
2022-10-05T23:23:56.729Z,99925.72
2022-10-05T23:26:25.053Z,99926.63
2022-10-05T23:28:52.232Z,99923.13
2022-10-05T23:31:30.998Z,99923.06
2022-10-05T23:33:58.012Z,99926.47
2022-10-05T23:36:27.791Z,99917.78
2022-10-05T23:38:54.845Z,99917.75
2022-10-05T23:41:22.114Z,99919.47
2022-10-05T23:43:49.375Z,99919.50
2022-10-05T23:46:17.797Z,99921.25
2022-10-05T23:48:44.909Z,99918.66
2022-10-05T23:51:13.922Z,99917.78
2022-10-05T23:53:40.849Z,99920.41
2022-10-05T23:56:07.912Z,99931.75
2022-10-05T23:58:35.027Z,99926.50
